Time;durP1;ratioP1;P1;durP2;ratioP2;P2;SDS_P1;SDS_P2;PMS_P1;PMS_P2;Temp;Humidity;BMP_temperature;BMP_pressure;BME280_temperature;BME280_humidity;BME280_pressure;Samples;Min_cycle;Max_cycle;Signal;HPM_P1;HPM_P2
2022/05/12 00:00:59;;;;;;;;;;;18.30;99.90;;;;;;5113665;28;19911;-72
2022/05/12 00:03:26;;;;;;;;;;;18.40;99.90;;;;;;5113872;28;19940;-72
2022/05/12 00:05:53;;;;;;;;;;;18.40;99.90;;;;;;5113235;28;19912;-72
2022/05/12 00:08:19;;;;;;;;;;;18.40;99.90;;;;;;5113674;28;20361;-73
2022/05/12 00:10:46;;;;;;;;;;;18.50;99.90;;;;;;5113628;28;19961;-72
2022/05/12 00:13:13;;;;;;;;;;;18.50;99.90;;;;;;5113610;28;19942;-72
2022/05/12 00:15:40;;;;;;;;;;;18.60;99.90;;;;;;5113435;28;19908;-73
2022/05/12 00:18:08;;;;;;;;;;;18.60;99.90;;;;;;5113692;28;19912;-72
2022/05/12 00:20:37;;;;;;;;;;;18.60;99.90;;;;;;5113422;28;19915;-73
2022/05/12 00:23:11;;;;;;;;;;;18.60;99.90;;;;;;5113614;28;20251;-73
2022/05/12 00:25:40;;;;;;;;;;;18.60;99.90;;;;;;5113335;28;19908;-73
2022/05/12 00:28:07;;;;;;;;;;;18.70;99.90;;;;;;5113325;28;19933;-73
2022/05/12 00:30:34;;;;;;;;;;;18.70;99.90;;;;;;5114952;28;19912;-73
2022/05/12 00:33:01;;;;;;;;;;;18.70;99.90;;;;;;5117564;28;19933;-74
2022/05/12 00:35:28;;;;;;;;;;;18.60;99.90;;;;;;5117654;28;19935;-73
2022/05/12 00:37:55;;;;;;;;;;;18.60;99.90;;;;;;5117523;28;19908;-73
2022/05/12 00:40:23;;;;;;;;;;;18.60;99.90;;;;;;5117377;28;19915;-74
2022/05/12 00:42:54;;;;;;;;;;;18.60;99.90;;;;;;5117355;28;19912;-73
2022/05/12 00:45:20;;;;;;;;;;;18.60;99.90;;;;;;5117381;28;20346;-73
2022/05/12 00:47:47;;;;;;;;;;;18.60;99.90;;;;;;5117161;28;19907;-73
2022/05/12 00:50:14;;;;;;;;;;;18.60;99.90;;;;;;5116872;28;20406;-73
2022/05/12 00:52:43;;;;;;;;;;;18.60;99.90;;;;;;5117121;28;19907;-73
2022/05/12 00:55:12;;;;;;;;;;;18.60;99.90;;;;;;5117208;28;19950;-73
2022/05/12 00:57:40;;;;;;;;;;;18.70;99.90;;;;;;5116782;28;19915;-73
2022/05/12 01:00:09;;;;;;;;;;;18.70;99.90;;;;;;5117052;28;20034;-73
2022/05/12 01:02:36;;;;;;;;;;;18.70;99.90;;;;;;5116862;28;20407;-73
2022/05/12 01:05:03;;;;;;;;;;;18.60;99.90;;;;;;5116833;28;19931;-72
2022/05/12 01:07:30;;;;;;;;;;;18.60;99.90;;;;;;5117050;28;19908;-73
2022/05/12 01:09:57;;;;;;;;;;;18.70;99.90;;;;;;5116840;28;20002;-74
2022/05/12 01:12:25;;;;;;;;;;;18.70;99.90;;;;;;5116732;28;19908;-75
2022/05/12 01:14:52;;;;;;;;;;;18.70;99.90;;;;;;5116946;28;19916;-74
2022/05/12 01:17:19;;;;;;;;;;;18.70;99.90;;;;;;5116646;28;19908;-73
2022/05/12 01:19:48;;;;;;;;;;;18.80;99.90;;;;;;5116221;28;19915;-73
2022/05/12 01:22:27;;;;;;;;;;;18.80;99.90;;;;;;5116515;28;20277;-74
2022/05/12 01:24:54;;;;;;;;;;;18.80;99.90;;;;;;5116441;28;19919;-73
2022/05/12 01:27:22;;;;;;;;;;;18.80;99.90;;;;;;5116542;28;20358;-73
2022/05/12 01:29:53;;;;;;;;;;;18.80;99.90;;;;;;5116243;28;20303;-73
2022/05/12 01:32:21;;;;;;;;;;;18.90;99.90;;;;;;5116373;28;19908;-74
2022/05/12 01:34:48;;;;;;;;;;;18.90;99.90;;;;;;5116166;28;19908;-73
2022/05/12 01:37:15;;;;;;;;;;;18.90;99.90;;;;;;5116250;28;19998;-73
2022/05/12 01:39:41;;;;;;;;;;;19.00;99.90;;;;;;5115987;28;19914;-73
2022/05/12 01:42:09;;;;;;;;;;;18.90;99.90;;;;;;5114164;28;19916;-73
2022/05/12 01:44:36;;;;;;;;;;;19.00;99.90;;;;;;5116137;28;20010;-74
2022/05/12 01:47:04;;;;;;;;;;;19.10;99.90;;;;;;5116191;28;19908;-73
2022/05/12 01:49:31;;;;;;;;;;;19.10;99.90;;;;;;5115532;28;19947;-74
2022/05/12 01:51:58;;;;;;;;;;;19.10;99.90;;;;;;5115866;28;19951;-73
2022/05/12 01:57:29;;;;;;;;;;;19.10;99.90;;;;;;5090691;28;20012;-73
2022/05/12 01:59:56;;;;;;;;;;;19.20;99.90;;;;;;5076300;28;20054;-73
2022/05/12 02:02:23;;;;;;;;;;;19.20;99.90;;;;;;5074281;28;19917;-73
2022/05/12 02:04:50;;;;;;;;;;;19.30;99.90;;;;;;5074279;28;19913;-73
2022/05/12 02:07:18;;;;;;;;;;;19.30;99.90;;;;;;5074455;28;19908;-73
2022/05/12 02:09:45;;;;;;;;;;;19.30;99.90;;;;;;5093808;28;19915;-73
2022/05/12 02:12:12;;;;;;;;;;;19.30;99.90;;;;;;5115487;28;19914;-73
2022/05/12 02:14:38;;;;;;;;;;;19.30;99.90;;;;;;5115634;28;19908;-74
2022/05/12 02:17:05;;;;;;;;;;;19.40;99.90;;;;;;5115446;28;19943;-73
2022/05/12 02:19:32;;;;;;;;;;;19.40;99.90;;;;;;5115206;28;19908;-73
2022/05/12 02:22:00;;;;;;;;;;;19.40;99.90;;;;;;5115269;28;20393;-74
2022/05/12 02:24:27;;;;;;;;;;;19.40;99.90;;;;;;5115147;28;20419;-73
2022/05/12 02:26:55;;;;;;;;;;;19.50;99.90;;;;;;5115379;28;19919;-74
2022/05/12 02:29:22;;;;;;;;;;;19.40;99.90;;;;;;5115125;28;19995;-75
2022/05/12 02:31:49;;;;;;;;;;;19.50;99.90;;;;;;5114954;28;20010;-73
2022/05/12 02:34:17;;;;;;;;;;;19.50;99.90;;;;;;5114968;28;20319;-73
2022/05/12 02:36:59;;;;;;;;;;;19.50;99.90;;;;;;5114939;28;20626;-73
2022/05/12 02:39:27;;;;;;;;;;;19.50;99.90;;;;;;5115124;28;19960;-74
2022/05/12 02:41:54;;;;;;;;;;;19.50;99.90;;;;;;5114579;28;19927;-73
2022/05/12 02:44:21;;;;;;;;;;;19.50;99.90;;;;;;5114991;28;19908;-73
2022/05/12 02:46:47;;;;;;;;;;;19.40;99.90;;;;;;5114886;28;19908;-73
2022/05/12 02:49:14;;;;;;;;;;;19.40;99.90;;;;;;5114478;28;19931;-73
2022/05/12 02:51:43;;;;;;;;;;;19.40;99.90;;;;;;5114646;28;19970;-74
2022/05/12 02:54:11;;;;;;;;;;;19.40;99.90;;;;;;5113902;28;20196;-73
2022/05/12 02:56:38;;;;;;;;;;;19.30;99.90;;;;;;5114717;28;19908;-73
2022/05/12 02:59:05;;;;;;;;;;;19.20;99.90;;;;;;5114771;28;20277;-73
2022/05/12 03:01:32;;;;;;;;;;;19.20;99.90;;;;;;5114477;28;19916;-73
2022/05/12 03:03:59;;;;;;;;;;;19.00;99.90;;;;;;5114428;28;19914;-74
2022/05/12 03:06:26;;;;;;;;;;;19.00;99.90;;;;;;5114595;28;19912;-75
2022/05/12 03:08:53;;;;;;;;;;;18.90;99.90;;;;;;5114530;28;19960;-73
2022/05/12 03:11:20;;;;;;;;;;;18.90;99.90;;;;;;5114442;28;19915;-73
2022/05/12 03:13:49;;;;;;;;;;;19.00;99.90;;;;;;5114261;28;19908;-73
2022/05/12 03:16:17;;;;;;;;;;;19.00;99.90;;;;;;5114319;28;20371;-75
2022/05/12 03:18:46;;;;;;;;;;;19.00;99.90;;;;;;5114247;28;19908;-72
2022/05/12 03:21:13;;;;;;;;;;;19.00;99.90;;;;;;5113548;28;19919;-73
2022/05/12 03:23:40;;;;;;;;;;;19.00;99.90;;;;;;5113983;28;20006;-74
2022/05/12 03:26:08;;;;;;;;;;;19.00;99.90;;;;;;5114172;28;19918;-73
2022/05/12 03:28:35;;;;;;;;;;;19.00;99.90;;;;;;5114107;28;19958;-75
2022/05/12 03:31:02;;;;;;;;;;;19.10;99.90;;;;;;5114247;28;19914;-73
2022/05/12 03:33:29;;;;;;;;;;;19.10;99.90;;;;;;5114104;28;19908;-73
2022/05/12 03:35:56;;;;;;;;;;;19.10;99.90;;;;;;5114090;28;19914;-73
2022/05/12 03:38:23;;;;;;;;;;;19.10;99.90;;;;;;5114038;28;19908;-73
2022/05/12 03:40:50;;;;;;;;;;;19.20;99.90;;;;;;5113867;28;19964;-73
2022/05/12 03:46:04;;;;;;;;;;;19.20;99.90;;;;;;5102251;28;20366;-75
2022/05/12 03:48:31;;;;;;;;;;;19.20;99.90;;;;;;5113860;28;19908;-73
2022/05/12 03:50:57;;;;;;;;;;;19.20;99.90;;;;;;5113668;28;19930;-73
2022/05/12 03:53:27;;;;;;;;;;;19.30;99.90;;;;;;5113806;28;19994;-73
2022/05/12 03:55:54;;;;;;;;;;;19.30;99.90;;;;;;5113719;28;19951;-74
2022/05/12 03:58:21;;;;;;;;;;;19.30;99.90;;;;;;5113668;28;19919;-74
2022/05/12 04:00:50;;;;;;;;;;;19.30;99.90;;;;;;5113664;28;19915;-73
2022/05/12 04:03:16;;;;;;;;;;;19.30;99.90;;;;;;5113591;28;19915;-74
2022/05/12 04:05:43;;;;;;;;;;;19.30;99.90;;;;;;5116767;28;19933;-73
2022/05/12 04:08:10;;;;;;;;;;;19.30;99.90;;;;;;5120363;28;20389;-74
2022/05/12 04:10:37;;;;;;;;;;;19.40;99.90;;;;;;5119140;28;20297;-73
2022/05/12 04:13:04;;;;;;;;;;;19.40;99.90;;;;;;5120520;28;20105;-74
2022/05/12 04:15:30;;;;;;;;;;;19.40;99.90;;;;;;5120315;28;19908;-74
2022/05/12 04:17:59;;;;;;;;;;;19.40;99.90;;;;;;5120289;27;20022;-73
2022/05/12 04:20:26;;;;;;;;;;;19.40;99.90;;;;;;5120354;28;19915;-73
2022/05/12 04:22:53;;;;;;;;;;;19.30;99.90;;;;;;5120458;28;19916;-73
2022/05/12 04:25:20;;;;;;;;;;;19.30;99.90;;;;;;5120382;28;19908;-74
2022/05/12 04:27:47;;;;;;;;;;;19.40;99.90;;;;;;5120065;28;19908;-74
2022/05/12 04:30:15;;;;;;;;;;;19.40;99.90;;;;;;5120232;27;20311;-74
2022/05/12 04:32:41;;;;;;;;;;;19.40;99.90;;;;;;5120130;28;19908;-74
2022/05/12 04:35:15;;;;;;;;;;;19.40;99.90;;;;;;5120340;28;19969;-74
2022/05/12 04:37:46;;;;;;;;;;;19.40;99.90;;;;;;5120064;28;19908;-74
2022/05/12 04:40:33;;;;;;;;;;;19.50;99.90;;;;;;5120181;28;19922;-75
2022/05/12 04:42:59;;;;;;;;;;;19.50;99.90;;;;;;5098772;28;19971;-74
2022/05/12 04:45:27;;;;;;;;;;;19.50;99.90;;;;;;5083328;28;20398;-74
2022/05/12 04:47:54;;;;;;;;;;;19.50;99.90;;;;;;5116335;27;19942;-74
2022/05/12 04:50:22;;;;;;;;;;;19.50;99.90;;;;;;5099461;28;19920;-75
2022/05/12 04:52:49;;;;;;;;;;;19.50;99.90;;;;;;5099716;28;20553;-74
2022/05/12 04:55:17;;;;;;;;;;;19.50;99.90;;;;;;5099712;28;19908;-73
2022/05/12 04:57:46;;;;;;;;;;;19.60;99.90;;;;;;5099487;28;19916;-74
2022/05/12 05:00:15;;;;;;;;;;;19.60;99.90;;;;;;5099522;28;19908;-75
2022/05/12 05:02:42;;;;;;;;;;;19.60;99.90;;;;;;5099491;28;19916;-74
2022/05/12 05:05:09;;;;;;;;;;;19.50;99.90;;;;;;5099473;28;19940;-74
2022/05/12 05:07:36;;;;;;;;;;;19.60;99.90;;;;;;5099227;28;20381;-74
2022/05/12 05:10:03;;;;;;;;;;;19.60;99.90;;;;;;5099333;28;19919;-75
2022/05/12 05:12:31;;;;;;;;;;;19.60;99.90;;;;;;5099347;28;20412;-74
2022/05/12 05:14:58;;;;;;;;;;;19.60;99.90;;;;;;5099292;28;19975;-74
2022/05/12 05:17:25;;;;;;;;;;;19.60;99.90;;;;;;5096226;28;19952;-74
2022/05/12 05:19:52;;;;;;;;;;;19.60;99.90;;;;;;5095923;28;19908;-74
2022/05/12 05:22:18;;;;;;;;;;;19.50;99.90;;;;;;5095946;28;19920;-73
2022/05/12 05:24:45;;;;;;;;;;;19.40;99.90;;;;;;5095917;28;19914;-73
2022/05/12 05:27:12;;;;;;;;;;;19.40;99.90;;;;;;5095769;28;20370;-73
2022/05/12 05:29:41;;;;;;;;;;;19.30;99.90;;;;;;5095617;28;19908;-74
2022/05/12 05:32:12;;;;;;;;;;;19.30;99.90;;;;;;5095631;28;19930;-73
2022/05/12 05:34:38;;;;;;;;;;;19.20;99.90;;;;;;5095856;28;20011;-73
2022/05/12 05:37:05;;;;;;;;;;;19.20;99.90;;;;;;5094667;28;20010;-73
2022/05/12 05:39:32;;;;;;;;;;;19.20;99.90;;;;;;5095611;28;19915;-73
2022/05/12 05:42:07;;;;;;;;;;;19.10;99.90;;;;;;5095831;28;20379;-73
2022/05/12 05:44:34;;;;;;;;;;;19.10;99.90;;;;;;5095679;28;19953;-74
2022/05/12 05:47:01;;;;;;;;;;;19.10;99.90;;;;;;5095655;28;19909;-74
2022/05/12 05:49:32;;;;;;;;;;;19.10;99.90;;;;;;5095521;28;20003;-73
2022/05/12 05:54:43;;;;;;;;;;;19.00;99.90;;;;;;5095640;28;20281;-73
2022/05/12 05:57:10;;;;;;;;;;;19.00;99.90;;;;;;5095672;28;20374;-73
2022/05/12 05:59:37;;;;;;;;;;;19.00;99.90;;;;;;5095453;28;19908;-74
2022/05/12 06:02:04;;;;;;;;;;;19.00;99.90;;;;;;5095267;28;19919;-73
2022/05/12 06:04:30;;;;;;;;;;;18.90;99.90;;;;;;5095726;28;19973;-74
2022/05/12 06:06:57;;;;;;;;;;;18.90;99.90;;;;;;5095301;28;19942;-73
2022/05/12 06:09:25;;;;;;;;;;;18.90;99.90;;;;;;5095351;28;19915;-74
2022/05/12 06:11:51;;;;;;;;;;;18.90;99.90;;;;;;5095247;28;20355;-74
2022/05/12 06:14:18;;;;;;;;;;;18.90;99.90;;;;;;5095409;28;19912;-73
2022/05/12 06:16:45;;;;;;;;;;;18.80;99.90;;;;;;5127890;27;19923;-73
2022/05/12 06:19:11;;;;;;;;;;;18.90;99.90;;;;;;5095062;28;19995;-73
2022/05/12 06:21:38;;;;;;;;;;;18.80;99.90;;;;;;5094873;28;19916;-73
2022/05/12 06:24:05;;;;;;;;;;;18.90;99.90;;;;;;5095093;28;19936;-74
2022/05/12 06:26:31;;;;;;;;;;;18.80;99.90;;;;;;5095123;28;20370;-73
2022/05/12 06:28:58;;;;;;;;;;;18.80;99.90;;;;;;5094751;28;20013;-73
2022/05/12 06:31:29;;;;;;;;;;;18.80;99.90;;;;;;5094837;28;20370;-73
2022/05/12 06:33:57;;;;;;;;;;;18.80;99.90;;;;;;5094722;28;19908;-74
2022/05/12 06:36:24;;;;;;;;;;;18.80;99.90;;;;;;5094753;28;19976;-73
2022/05/12 06:38:51;;;;;;;;;;;18.80;99.90;;;;;;5094680;28;19908;-73
2022/05/12 06:41:18;;;;;;;;;;;18.80;99.90;;;;;;5094608;28;19911;-73
2022/05/12 06:43:45;;;;;;;;;;;18.80;99.90;;;;;;5094476;28;20291;-73
2022/05/12 06:46:15;;;;;;;;;;;18.80;99.90;;;;;;5094696;28;19908;-73
2022/05/12 06:48:42;;;;;;;;;;;18.70;99.90;;;;;;5090025;28;19912;-73
2022/05/12 06:51:11;;;;;;;;;;;18.70;99.90;;;;;;5092723;28;20388;-73
2022/05/12 06:53:38;;;;;;;;;;;18.70;99.90;;;;;;5092136;28;19916;-73
2022/05/12 06:56:05;;;;;;;;;;;18.70;99.90;;;;;;5091889;28;19916;-74
2022/05/12 06:58:32;;;;;;;;;;;18.70;99.90;;;;;;5092309;28;19912;-73
2022/05/12 07:01:00;;;;;;;;;;;18.70;99.90;;;;;;5092095;28;19912;-73
2022/05/12 07:03:30;;;;;;;;;;;18.70;99.90;;;;;;5091926;28;20377;-72
2022/05/12 07:05:57;;;;;;;;;;;18.70;99.90;;;;;;5091680;28;20392;-74
2022/05/12 07:08:25;;;;;;;;;;;18.80;99.90;;;;;;5091912;28;19941;-74
2022/05/12 07:10:52;;;;;;;;;;;18.80;99.90;;;;;;5091893;28;19908;-73
2022/05/12 07:13:20;;;;;;;;;;;18.80;99.90;;;;;;5091896;28;19915;-72
2022/05/12 07:15:48;;;;;;;;;;;18.80;99.90;;;;;;5091751;28;19912;-72
2022/05/12 07:18:15;;;;;;;;;;;18.80;99.90;;;;;;5091425;28;20271;-73
2022/05/12 07:28:56;;;;;;;;;;;18.90;99.90;;;;;;5091838;28;19919;-73
2022/05/12 07:31:24;;;;;;;;;;;18.90;99.90;;;;;;5091251;28;19912;-73
2022/05/12 07:33:51;;;;;;;;;;;18.90;99.90;;;;;;5090916;28;20412;-73
2022/05/12 07:36:20;;;;;;;;;;;19.00;99.90;;;;;;5091482;28;19919;-73
2022/05/12 07:38:47;;;;;;;;;;;19.00;99.90;;;;;;5091577;28;20342;-73
2022/05/12 07:41:14;;;;;;;;;;;19.00;99.90;;;;;;5090992;28;19916;-75
2022/05/12 07:43:41;;;;;;;;;;;19.00;99.90;;;;;;5091042;28;19908;-73
2022/05/12 07:46:09;;;;;;;;;;;19.00;99.90;;;;;;5091547;28;19916;-73
2022/05/12 07:48:35;;;;;;;;;;;19.00;99.90;;;;;;5091242;28;20421;-73
2022/05/12 07:51:02;;;;;;;;;;;19.00;99.90;;;;;;5091256;28;19927;-75
2022/05/12 07:53:29;;;;;;;;;;;19.00;99.90;;;;;;5091449;28;20470;-73
2022/05/12 07:55:55;;;;;;;;;;;19.00;99.90;;;;;;5091052;28;20395;-73
2022/05/12 07:58:22;;;;;;;;;;;19.10;99.90;;;;;;5091279;28;19951;-73
2022/05/12 08:00:53;;;;;;;;;;;19.00;99.90;;;;;;5091264;28;20355;-73
2022/05/12 08:03:23;;;;;;;;;;;19.10;99.90;;;;;;5090952;28;20309;-73
2022/05/12 08:05:50;;;;;;;;;;;19.10;99.90;;;;;;5091064;28;20031;-73
2022/05/12 08:08:17;;;;;;;;;;;19.10;99.90;;;;;;5091297;28;19987;-74
2022/05/12 08:10:44;;;;;;;;;;;19.10;99.90;;;;;;5090838;28;20281;-74
2022/05/12 08:13:17;;;;;;;;;;;19.10;99.90;;;;;;5091107;28;19912;-74
2022/05/12 08:15:46;;;;;;;;;;;19.10;99.90;;;;;;5091087;28;19908;-74
2022/05/12 08:18:13;;;;;;;;;;;19.10;99.90;;;;;;5090951;28;19951;-73
2022/05/12 08:20:40;;;;;;;;;;;19.10;99.90;;;;;;5091051;28;20500;-74
2022/05/12 08:23:06;;;;;;;;;;;19.10;99.90;;;;;;5090843;28;19916;-74
2022/05/12 08:25:33;;;;;;;;;;;19.10;99.90;;;;;;5090924;28;19931;-74
2022/05/12 08:28:00;;;;;;;;;;;19.00;99.90;;;;;;5091063;28;20014;-73
2022/05/12 08:30:26;;;;;;;;;;;19.00;99.90;;;;;;5091149;28;19916;-73
2022/05/12 08:32:53;;;;;;;;;;;19.00;99.90;;;;;;5090856;28;19908;-72
2022/05/12 08:35:20;;;;;;;;;;;19.00;99.90;;;;;;5089478;28;19944;-72
2022/05/12 08:37:46;;;;;;;;;;;19.00;99.90;;;;;;5090540;28;19908;-73
2022/05/12 08:40:23;;;;;;;;;;;19.00;99.90;;;;;;5091090;28;19964;-73
2022/05/12 08:42:50;;;;;;;;;;;19.00;99.90;;;;;;5090966;28;19943;-74
2022/05/12 08:45:18;;;;;;;;;;;19.00;99.90;;;;;;5091115;28;19915;-73
2022/05/12 08:47:48;;;;;;;;;;;19.00;99.90;;;;;;5090538;28;19919;-72
2022/05/12 08:50:23;;;;;;;;;;;19.00;99.90;;;;;;5090444;28;20492;-73
2022/05/12 08:52:52;;;;;;;;;;;19.00;99.90;;;;;;5092541;28;19935;-73
2022/05/12 08:55:22;;;;;;;;;;;19.00;99.90;;;;;;5094754;28;20380;-72
2022/05/12 08:58:05;;;;;;;;;;;18.90;99.90;;;;;;5094562;28;19919;-72
2022/05/12 09:00:36;;;;;;;;;;;18.90;99.90;;;;;;5094558;28;19908;-72
2022/05/12 09:03:15;;;;;;;;;;;18.90;99.90;;;;;;5092271;28;19916;-74
2022/05/12 09:06:01;;;;;;;;;;;18.90;99.90;;;;;;5074664;28;19916;-73
2022/05/12 09:08:59;;;;;;;;;;;18.90;99.90;;;;;;5076194;28;20351;-75
2022/05/12 09:11:31;;;;;;;;;;;18.90;99.90;;;;;;5074390;28;19908;-74
2022/05/12 09:14:00;;;;;;;;;;;18.90;99.90;;;;;;5075792;28;20410;-74
2022/05/12 09:16:29;;;;;;;;;;;18.90;99.90;;;;;;5075857;28;19915;-73
2022/05/12 09:18:57;;;;;;;;;;;18.90;99.90;;;;;;5075998;28;19954;-73
2022/05/12 09:21:28;;;;;;;;;;;18.90;99.90;;;;;;5075804;28;20325;-73
2022/05/12 09:23:56;;;;;;;;;;;18.90;99.90;;;;;;5075668;28;19912;-73
2022/05/12 09:26:40;;;;;;;;;;;18.90;99.90;;;;;;5075894;28;19920;-74
2022/05/12 09:29:11;;;;;;;;;;;18.90;99.90;;;;;;5075976;28;19931;-72
2022/05/12 09:31:38;;;;;;;;;;;18.90;99.90;;;;;;5075394;28;19916;-72
2022/05/12 09:34:14;;;;;;;;;;;18.90;99.90;;;;;;5075734;28;20023;-72
2022/05/12 09:36:41;;;;;;;;;;;18.80;99.90;;;;;;5075585;28;19954;-73
2022/05/12 09:39:08;;;;;;;;;;;18.80;99.90;;;;;;5075693;28;19941;-72
2022/05/12 09:41:42;;;;;;;;;;;18.80;99.90;;;;;;5075521;28;19921;-73
2022/05/12 09:44:28;;;;;;;;;;;18.90;99.90;;;;;;5075638;28;19915;-73
2022/05/12 09:46:59;;;;;;;;;;;18.90;99.90;;;;;;5075669;28;20385;-75
2022/05/12 09:49:31;;;;;;;;;;;18.90;99.90;;;;;;5075541;28;19909;-73
2022/05/12 09:52:15;;;;;;;;;;;18.80;99.90;;;;;;5075727;28;19909;-73
2022/05/12 09:54:46;;;;;;;;;;;18.80;99.90;;;;;;5074820;28;20287;-72
2022/05/12 09:57:17;;;;;;;;;;;18.90;99.90;;;;;;5075526;28;19977;-72
2022/05/12 09:59:50;;;;;;;;;;;18.80;99.90;;;;;;5075238;28;19908;-73
2022/05/12 10:08:09;;;;;;;;;;;18.80;99.90;;;;;;5075574;28;19914;-75
2022/05/12 10:10:36;;;;;;;;;;;18.80;99.90;;;;;;5075112;28;19995;-75
2022/05/12 10:13:23;;;;;;;;;;;18.80;99.90;;;;;;5075054;28;19909;-75
2022/05/12 10:15:50;;;;;;;;;;;18.80;99.90;;;;;;5074595;28;20307;-75
2022/05/12 10:18:16;;;;;;;;;;;18.80;99.90;;;;;;5074919;28;19917;-75
2022/05/12 10:20:44;;;;;;;;;;;18.80;99.90;;;;;;5074929;28;19956;-74
2022/05/12 10:23:22;;;;;;;;;;;18.80;99.90;;;;;;5074843;28;19948;-74
2022/05/12 10:26:02;;;;;;;;;;;18.80;99.90;;;;;;5074839;28;19909;-75
2022/05/12 10:28:48;;;;;;;;;;;18.70;99.90;;;;;;5074945;28;19940;-75
2022/05/12 10:31:27;;;;;;;;;;;18.70;99.90;;;;;;5074664;28;19914;-75
2022/05/12 10:34:16;;;;;;;;;;;18.80;99.90;;;;;;5074698;28;19916;-75
2022/05/12 10:36:49;;;;;;;;;;;18.70;99.90;;;;;;5074121;28;19931;-75
2022/05/12 10:39:41;;;;;;;;;;;18.80;99.90;;;;;;5074577;28;19915;-74
2022/05/12 10:42:11;;;;;;;;;;;18.80;99.90;;;;;;5074537;28;20377;-76
2022/05/12 10:45:02;;;;;;;;;;;18.80;99.90;;;;;;5074580;28;19909;-76
2022/05/12 10:47:43;;;;;;;;;;;18.70;99.90;;;;;;5074392;28;19915;-76
2022/05/12 10:50:27;;;;;;;;;;;18.80;99.90;;;;;;5074085;28;19973;-75
2022/05/12 10:52:54;;;;;;;;;;;18.70;99.90;;;;;;5074255;28;19913;-74
2022/05/12 10:55:30;;;;;;;;;;;18.70;99.90;;;;;;5074292;28;19915;-73
2022/05/12 10:58:19;;;;;;;;;;;18.70;99.90;;;;;;5074213;28;20374;-74
2022/05/12 11:01:09;;;;;;;;;;;18.70;99.90;;;;;;5073938;28;19912;-74
2022/05/12 11:03:42;;;;;;;;;;;18.70;99.90;;;;;;5073947;28;19912;-72
2022/05/12 11:06:10;;;;;;;;;;;18.70;99.90;;;;;;5073757;28;19962;-73
2022/05/12 11:08:57;;;;;;;;;;;18.70;99.90;;;;;;5073924;28;19995;-73
2022/05/12 11:11:45;;;;;;;;;;;18.70;99.90;;;;;;5071986;28;20362;-74
2022/05/12 11:14:31;;;;;;;;;;;18.70;99.90;;;;;;5071672;28;19908;-76
2022/05/12 11:16:57;;;;;;;;;;;18.70;99.90;;;;;;5071472;28;19961;-75
2022/05/12 11:19:25;;;;;;;;;;;18.70;99.90;;;;;;5070987;28;19934;-76
2022/05/12 11:22:01;;;;;;;;;;;18.70;99.90;;;;;;5071511;28;19916;-73
2022/05/12 11:24:35;;;;;;;;;;;18.70;99.90;;;;;;5070000;28;19944;-76
2022/05/12 11:27:10;;;;;;;;;;;18.70;99.90;;;;;;5071445;28;19909;-73
2022/05/12 11:29:48;;;;;;;;;;;18.70;99.90;;;;;;5071361;28;19954;-76
2022/05/12 11:32:24;;;;;;;;;;;18.70;99.90;;;;;;5071479;28;20397;-74
2022/05/12 11:34:54;;;;;;;;;;;18.70;99.90;;;;;;5103442;28;19912;-76
2022/05/12 11:37:27;;;;;;;;;;;18.70;99.90;;;;;;5070899;28;20390;-77
2022/05/12 11:39:55;;;;;;;;;;;18.70;99.90;;;;;;5071137;28;19918;-76
2022/05/12 11:42:25;;;;;;;;;;;18.70;99.90;;;;;;5071270;28;19920;-76
2022/05/12 11:45:01;;;;;;;;;;;18.70;99.90;;;;;;5071351;28;19931;-73
2022/05/12 11:47:49;;;;;;;;;;;18.60;99.90;;;;;;5071215;28;20293;-77
2022/05/12 11:50:24;;;;;;;;;;;18.60;99.90;;;;;;5070245;28;19990;-76
2022/05/12 11:53:00;;;;;;;;;;;18.70;99.90;;;;;;5071325;28;19958;-77
2022/05/12 11:55:31;;;;;;;;;;;18.70;99.90;;;;;;5071211;28;19917;-74
2022/05/12 11:58:07;;;;;;;;;;;18.60;99.90;;;;;;5071192;28;20385;-73
2022/05/12 12:00:36;;;;;;;;;;;18.60;99.90;;;;;;5071027;28;19916;-74
2022/05/12 12:03:22;;;;;;;;;;;18.60;99.90;;;;;;5070814;28;19921;-73
2022/05/12 12:05:48;;;;;;;;;;;18.60;99.90;;;;;;5070822;28;19936;-73
2022/05/12 12:08:30;;;;;;;;;;;18.60;99.90;;;;;;5071240;28;19923;-74
2022/05/12 12:11:19;;;;;;;;;;;18.60;99.90;;;;;;5103376;28;20254;-73
2022/05/12 12:13:47;;;;;;;;;;;18.60;99.90;;;;;;5070892;28;19909;-75
2022/05/12 12:16:15;;;;;;;;;;;18.60;99.90;;;;;;5070514;28;19931;-74
2022/05/12 12:18:43;;;;;;;;;;;18.60;99.90;;;;;;5070386;28;20390;-74
2022/05/12 12:21:42;;;;;;;;;;;18.60;99.90;;;;;;5070853;28;19922;-74
2022/05/12 12:24:21;;;;;;;;;;;18.60;99.90;;;;;;5058587;28;20410;-74
2022/05/12 12:26:50;;;;;;;;;;;18.60;99.90;;;;;;5072700;28;20288;-75
2022/05/12 12:29:19;;;;;;;;;;;18.60;99.90;;;;;;5074569;28;19912;-74
2022/05/12 12:31:49;;;;;;;;;;;18.60;99.90;;;;;;5074386;28;19951;-73
2022/05/12 12:34:19;;;;;;;;;;;18.60;99.90;;;;;;5073373;28;19958;-75
2022/05/12 12:36:52;;;;;;;;;;;18.70;99.90;;;;;;5074953;28;19913;-73
2022/05/12 12:39:36;;;;;;;;;;;18.60;99.90;;;;;;5075035;28;20340;-73
2022/05/12 12:42:15;;;;;;;;;;;18.70;99.90;;;;;;5074431;28;20031;-76
2022/05/12 12:44:48;;;;;;;;;;;18.70;99.90;;;;;;5074702;28;19908;-75
2022/05/12 12:47:33;;;;;;;;;;;18.70;99.90;;;;;;5074535;28;20291;-74
2022/05/12 12:50:03;;;;;;;;;;;18.70;99.90;;;;;;5073839;28;19962;-74
2022/05/12 12:52:29;;;;;;;;;;;18.60;99.90;;;;;;5074397;28;19913;-74
2022/05/12 12:57:44;;;;;;;;;;;18.70;99.90;;;;;;5074327;28;19947;-75
2022/05/12 13:00:15;;;;;;;;;;;18.70;99.90;;;;;;5074645;28;19909;-75
2022/05/12 13:02:46;;;;;;;;;;;18.70;99.90;;;;;;5074409;28;20382;-73
2022/05/12 13:05:22;;;;;;;;;;;18.70;99.90;;;;;;5105743;28;19917;-74
2022/05/12 13:07:55;;;;;;;;;;;18.60;99.90;;;;;;5074123;28;19916;-73
2022/05/12 13:10:21;;;;;;;;;;;18.60;99.90;;;;;;5073841;28;19966;-74
2022/05/12 13:12:58;;;;;;;;;;;18.60;99.90;;;;;;5074281;28;19995;-73
2022/05/12 13:15:25;;;;;;;;;;;18.60;99.90;;;;;;5073892;28;19923;-74
2022/05/12 13:17:55;;;;;;;;;;;18.60;99.90;;;;;;5073542;28;19943;-74
2022/05/12 13:20:24;;;;;;;;;;;18.60;99.90;;;;;;5074019;28;19951;-74
2022/05/12 13:22:53;;;;;;;;;;;18.60;99.90;;;;;;5073702;28;20400;-74
2022/05/12 13:25:25;;;;;;;;;;;18.60;99.90;;;;;;5073410;28;19913;-73
2022/05/12 13:27:52;;;;;;;;;;;18.60;99.90;;;;;;5073247;28;19908;-75
2022/05/12 13:30:20;;;;;;;;;;;18.60;99.90;;;;;;5106185;28;19940;-74
2022/05/12 13:32:51;;;;;;;;;;;18.50;99.90;;;;;;5073929;28;19995;-75
2022/05/12 13:35:23;;;;;;;;;;;18.50;99.90;;;;;;5073515;28;19912;-74
2022/05/12 13:37:52;;;;;;;;;;;18.50;99.90;;;;;;5072811;28;19920;-74
2022/05/12 13:40:37;;;;;;;;;;;18.60;99.90;;;;;;5073276;28;20476;-74
2022/05/12 13:43:04;;;;;;;;;;;18.60;99.90;;;;;;5072615;28;20031;-75
2022/05/12 13:45:32;;;;;;;;;;;18.60;99.90;;;;;;5073281;28;19914;-74
2022/05/12 13:47:59;;;;;;;;;;;18.60;99.90;;;;;;5073381;28;19912;-74
2022/05/12 13:50:35;;;;;;;;;;;18.60;99.90;;;;;;5073373;28;19927;-73
2022/05/12 13:53:02;;;;;;;;;;;18.60;99.90;;;;;;5073385;28;19919;-74
2022/05/12 13:55:33;;;;;;;;;;;18.60;99.90;;;;;;5073516;28;19919;-74
2022/05/12 13:58:03;;;;;;;;;;;18.50;99.90;;;;;;5073233;28;20033;-74
2022/05/12 14:00:35;;;;;;;;;;;18.60;99.90;;;;;;5073083;28;20374;-75
2022/05/12 14:03:22;;;;;;;;;;;18.50;99.90;;;;;;5073253;28;19916;-75
2022/05/12 14:05:49;;;;;;;;;;;18.50;99.90;;;;;;5073786;28;19912;-74
2022/05/12 14:08:23;;;;;;;;;;;18.50;99.90;;;;;;5073144;28;19913;-74
2022/05/12 14:10:53;;;;;;;;;;;18.50;99.90;;;;;;5073250;28;19912;-74
2022/05/12 14:19:14;;;;;;;;;;;18.50;99.90;;;;;;5073436;28;19981;-74
2022/05/12 14:21:46;;;;;;;;;;;18.40;99.90;;;;;;5072727;28;19916;-74
2022/05/12 14:24:14;;;;;;;;;;;18.40;99.90;;;;;;5072835;28;19920;-73
2022/05/12 14:26:41;;;;;;;;;;;18.40;99.90;;;;;;5072731;28;19912;-73
2022/05/12 14:29:09;;;;;;;;;;;18.50;99.90;;;;;;5072650;28;19919;-73
2022/05/12 14:31:36;;;;;;;;;;;18.50;99.90;;;;;;5072285;28;19916;-73
2022/05/12 14:34:03;;;;;;;;;;;18.50;99.90;;;;;;5071351;28;19995;-73
2022/05/12 14:36:30;;;;;;;;;;;18.40;99.90;;;;;;5071417;28;19955;-73
2022/05/12 14:38:56;;;;;;;;;;;18.50;99.90;;;;;;5071346;28;19977;-73
2022/05/12 14:41:23;;;;;;;;;;;18.40;99.90;;;;;;5070822;28;19916;-73
2022/05/12 14:43:50;;;;;;;;;;;18.50;99.90;;;;;;5071079;28;20047;-73
2022/05/12 14:46:17;;;;;;;;;;;18.50;99.90;;;;;;5071076;28;20698;-73
2022/05/12 14:48:45;;;;;;;;;;;18.40;99.90;;;;;;5072177;28;20326;-73
2022/05/12 14:51:12;;;;;;;;;;;18.40;99.90;;;;;;5072152;28;19927;-73
2022/05/12 14:53:39;;;;;;;;;;;18.50;99.90;;;;;;5071713;28;19962;-73
2022/05/12 14:56:06;;;;;;;;;;;18.50;99.90;;;;;;5072154;28;19909;-73
2022/05/12 14:58:33;;;;;;;;;;;18.50;99.90;;;;;;5072194;28;19909;-73
2022/05/12 15:01:00;;;;;;;;;;;18.50;99.90;;;;;;5071756;28;20363;-74
2022/05/12 15:03:27;;;;;;;;;;;18.50;99.90;;;;;;5072115;28;19917;-73